createdAt,value
2023-09-17T00:01:17.668Z,57.50
2023-09-17T01:28:22.469Z,57.50
2023-09-17T01:30:49.710Z,58.90
2023-09-17T01:33:16.499Z,58.80
2023-09-17T01:35:53.885Z,59.10
2023-09-17T01:38:22.991Z,59.10
2023-09-17T01:40:51.185Z,59.20
2023-09-17T01:43:22.107Z,59.00
2023-09-17T01:45:49.993Z,59.10
2023-09-17T01:48:17.274Z,59.20
2023-09-17T01:50:45.119Z,59.10
2023-09-17T01:53:13.203Z,59.20
2023-09-17T01:55:42.973Z,59.20
2023-09-17T01:58:12.927Z,59.30
2023-09-17T02:00:40.008Z,59.20
2023-09-17T02:03:07.235Z,59.30
2023-09-17T02:05:34.077Z,59.40
2023-09-17T02:08:00.771Z,59.40
2023-09-17T02:10:27.694Z,59.50
2023-09-17T02:12:54.399Z,59.50
2023-09-17T02:15:21.301Z,59.60
2023-09-17T02:17:51.778Z,59.60
2023-09-17T02:20:18.707Z,59.50
2023-09-17T02:22:45.545Z,59.60
2023-09-17T02:25:12.391Z,59.60
2023-09-17T04:28:14.596Z,59.40
2023-09-17T04:30:41.402Z,60.00
2023-09-17T04:33:08.149Z,60.30
2023-09-17T04:35:34.903Z,60.50
2023-09-17T04:38:01.723Z,60.90
2023-09-17T04:40:29.750Z,60.80
2023-09-17T05:44:48.866Z,61.40
2023-09-17T05:47:15.696Z,63.30
2023-09-17T05:49:42.484Z,63.60
2023-09-17T07:38:20.727Z,63.30
2023-09-17T07:40:49.121Z,67.50
2023-09-17T07:43:15.806Z,67.70
2023-09-17T07:45:43.709Z,67.20
2023-09-17T07:48:10.807Z,67.90
2023-09-17T07:50:37.572Z,67.90
2023-09-17T07:53:05.224Z,68.00
2023-09-17T07:55:32.150Z,68.80
2023-09-17T07:57:59.059Z,68.20
2023-09-17T08:00:26.274Z,68.30
2023-09-17T08:02:53.364Z,68.20
2023-09-17T08:05:20.539Z,68.50
2023-09-17T08:07:47.300Z,68.30
2023-09-17T08:10:14.340Z,68.20
2023-09-17T08:12:41.082Z,68.40
2023-09-17T08:15:08.806Z,68.50
2023-09-17T08:22:30.833Z,68.70
2023-09-17T11:48:27.576Z,69.50
2023-09-17T13:43:31.101Z,73.70
2023-09-17T13:46:03.028Z,77.40
2023-09-17T13:48:30.491Z,77.40
2023-09-17T13:50:57.812Z,77.20
2023-09-17T13:53:24.944Z,77.30
2023-09-17T13:55:51.892Z,77.10
2023-09-17T13:58:19.284Z,77.40
2023-09-17T14:00:46.001Z,77.80
2023-09-17T14:03:16.829Z,78.00
2023-09-17T14:05:44.622Z,78.30
2023-09-17T14:08:12.301Z,78.50
2023-09-17T14:10:42.267Z,78.50
2023-09-17T14:13:09.440Z,78.80
2023-09-17T14:15:37.703Z,79.10
2023-09-17T14:18:04.577Z,78.70
2023-09-17T14:20:31.268Z,78.80
2023-09-17T14:22:58.362Z,79.20
2023-09-17T14:25:25.453Z,79.00
2023-09-17T14:27:52.888Z,79.00
2023-09-17T14:30:23.136Z,78.70
2023-09-17T14:32:52.527Z,79.00
2023-09-17T14:35:19.656Z,78.50
2023-09-17T14:47:40.324Z,79.40
2023-09-17T14:50:11.888Z,79.40
2023-09-17T14:52:39.234Z,79.40
2023-09-17T14:55:07.133Z,79.30
2023-09-17T14:57:37.052Z,79.30
2023-09-17T15:00:06.603Z,79.20
2023-09-17T15:02:34.145Z,79.20
2023-09-17T15:05:01.610Z,79.10
2023-09-17T15:07:28.716Z,79.40
2023-09-17T15:09:55.645Z,79.30
2023-09-17T15:12:22.380Z,79.40
2023-09-17T15:14:49.220Z,79.60
2023-09-17T15:17:16.094Z,79.50
2023-09-17T15:19:42.957Z,79.50
2023-09-17T15:22:09.695Z,79.40
2023-09-17T15:24:36.742Z,79.30
2023-09-17T15:27:03.574Z,79.50
2023-09-17T19:28:52.957Z,79.40
2023-09-17T19:31:19.657Z,75.90
2023-09-17T19:33:49.133Z,75.80
2023-09-17T19:36:15.978Z,75.70
2023-09-17T19:38:42.806Z,75.70
2023-09-17T19:41:09.519Z,75.90
2023-09-17T19:43:36.380Z,76.00
